sensor_id;sensor_type;location;lat;lon;timestamp;temperature;humidity
52799;DHT22;38667;42.872;74.622;2023-05-16T00:01:48;17.20;61.00
52799;DHT22;38667;42.872;74.622;2023-05-16T00:04:14;17.20;60.60
52799;DHT22;38667;42.872;74.622;2023-05-16T00:06:40;17.30;57.50
52799;DHT22;38667;42.872;74.622;2023-05-16T00:09:06;17.40;56.70
52799;DHT22;38667;42.872;74.622;2023-05-16T00:11:34;17.50;56.00
52799;DHT22;38667;42.872;74.622;2023-05-16T00:14:01;17.60;55.90
52799;DHT22;38667;42.872;74.622;2023-05-16T00:16:27;17.80;55.60
52799;DHT22;38667;42.872;74.622;2023-05-16T00:18:53;17.90;55.20
52799;DHT22;38667;42.872;74.622;2023-05-16T00:21:19;17.90;54.50
52799;DHT22;38667;42.872;74.622;2023-05-16T00:23:46;17.90;54.90
52799;DHT22;38667;42.872;74.622;2023-05-16T00:26:12;18.00;55.60
52799;DHT22;38667;42.872;74.622;2023-05-16T00:28:40;18.00;56.70
52799;DHT22;38667;42.872;74.622;2023-05-16T00:31:06;18.00;56.60
52799;DHT22;38667;42.872;74.622;2023-05-16T00:33:33;17.90;57.50
52799;DHT22;38667;42.872;74.622;2023-05-16T00:35:59;17.90;57.50
52799;DHT22;38667;42.872;74.622;2023-05-16T00:38:25;17.80;57.80
52799;DHT22;38667;42.872;74.622;2023-05-16T00:40:52;17.80;58.40
52799;DHT22;38667;42.872;74.622;2023-05-16T00:43:18;17.80;58.40
52799;DHT22;38667;42.872;74.622;2023-05-16T00:45:46;17.80;58.80
52799;DHT22;38667;42.872;74.622;2023-05-16T00:48:13;17.80;60.30
52799;DHT22;38667;42.872;74.622;2023-05-16T00:50:40;17.70;59.30
52799;DHT22;38667;42.872;74.622;2023-05-16T00:53:07;17.90;57.00
52799;DHT22;38667;42.872;74.622;2023-05-16T00:55:33;18.00;56.80
52799;DHT22;38667;42.872;74.622;2023-05-16T00:58:00;18.10;57.10
52799;DHT22;38667;42.872;74.622;2023-05-16T01:00:26;18.20;57.90
52799;DHT22;38667;42.872;74.622;2023-05-16T01:02:54;18.20;58.60
52799;DHT22;38667;42.872;74.622;2023-05-16T01:05:21;18.20;58.50
52799;DHT22;38667;42.872;74.622;2023-05-16T01:07:47;18.20;59.20
52799;DHT22;38667;42.872;74.622;2023-05-16T01:10:13;18.20;59.50
52799;DHT22;38667;42.872;74.622;2023-05-16T01:13:02;18.20;59.70
52799;DHT22;38667;42.872;74.622;2023-05-16T01:15:35;18.30;58.50
52799;DHT22;38667;42.872;74.622;2023-05-16T01:18:15;18.30;58.00
52799;DHT22;38667;42.872;74.622;2023-05-16T01:20:48;18.30;57.80
52799;DHT22;38667;42.872;74.622;2023-05-16T01:23:29;18.40;57.80
52799;DHT22;38667;42.872;74.622;2023-05-16T01:26:16;18.50;60.00
52799;DHT22;38667;42.872;74.622;2023-05-16T01:28:45;18.50;60.70
52799;DHT22;38667;42.872;74.622;2023-05-16T01:31:11;18.50;60.70
52799;DHT22;38667;42.872;74.622;2023-05-16T01:33:38;18.60;62.50
52799;DHT22;38667;42.872;74.622;2023-05-16T01:36:12;18.60;62.50
52799;DHT22;38667;42.872;74.622;2023-05-16T01:38:45;18.50;61.10
52799;DHT22;38667;42.872;74.622;2023-05-16T01:41:21;18.50;59.60
52799;DHT22;38667;42.872;74.622;2023-05-16T01:43:52;18.50;59.20
52799;DHT22;38667;42.872;74.622;2023-05-16T01:46:25;18.60;59.70
52799;DHT22;38667;42.872;74.622;2023-05-16T01:48:56;18.50;59.20
52799;DHT22;38667;42.872;74.622;2023-05-16T01:51:27;18.50;58.50
52799;DHT22;38667;42.872;74.622;2023-05-16T01:53:57;18.50;58.50
52799;DHT22;38667;42.872;74.622;2023-05-16T01:56:27;18.50;57.10
52799;DHT22;38667;42.872;74.622;2023-05-16T01:58:54;18.50;56.70
52799;DHT22;38667;42.872;74.622;2023-05-16T02:01:22;18.60;57.00
52799;DHT22;38667;42.872;74.622;2023-05-16T02:03:48;18.60;57.90
52799;DHT22;38667;42.872;74.622;2023-05-16T02:06:15;18.60;58.30
52799;DHT22;38667;42.872;74.622;2023-05-16T02:08:41;18.70;57.80
52799;DHT22;38667;42.872;74.622;2023-05-16T02:11:07;18.80;57.50
52799;DHT22;38667;42.872;74.622;2023-05-16T02:13:35;18.80;56.70
52799;DHT22;38667;42.872;74.622;2023-05-16T02:16:01;18.80;56.20
52799;DHT22;38667;42.872;74.622;2023-05-16T02:18:28;19.00;55.10
52799;DHT22;38667;42.872;74.622;2023-05-16T02:20:54;19.00;53.70
52799;DHT22;38667;42.872;74.622;2023-05-16T02:23:20;19.00;53.80
52799;DHT22;38667;42.872;74.622;2023-05-16T02:25:46;19.10;53.60
52799;DHT22;38667;42.872;74.622;2023-05-16T02:28:13;19.20;54.20
52799;DHT22;38667;42.872;74.622;2023-05-16T02:30:41;19.20;54.50
52799;DHT22;38667;42.872;74.622;2023-05-16T02:33:07;19.30;54.30
52799;DHT22;38667;42.872;74.622;2023-05-16T02:35:33;19.40;53.70
52799;DHT22;38667;42.872;74.622;2023-05-16T02:37:59;19.50;54.30
52799;DHT22;38667;42.872;74.622;2023-05-16T02:40:26;19.60;53.20
52799;DHT22;38667;42.872;74.622;2023-05-16T02:42:52;19.70;53.30
52799;DHT22;38667;42.872;74.622;2023-05-16T02:45:18;19.80;53.30
52799;DHT22;38667;42.872;74.622;2023-05-16T02:47:46;19.90;53.80
52799;DHT22;38667;42.872;74.622;2023-05-16T02:50:12;20.00;53.90
52799;DHT22;38667;42.872;74.622;2023-05-16T02:52:39;20.10;53.50
52799;DHT22;38667;42.872;74.622;2023-05-16T02:55:06;20.30;53.60
52799;DHT22;38667;42.872;74.622;2023-05-16T02:57:32;20.30;53.30
52799;DHT22;38667;42.872;74.622;2023-05-16T02:59:58;20.40;52.30
52799;DHT22;38667;42.872;74.622;2023-05-16T03:02:25;20.50;52.00
52799;DHT22;38667;42.872;74.622;2023-05-16T03:04:53;20.60;51.40
52799;DHT22;38667;42.872;74.622;2023-05-16T03:07:19;20.70;50.70
52799;DHT22;38667;42.872;74.622;2023-05-16T03:09:45;20.80;51.20
52799;DHT22;38667;42.872;74.622;2023-05-16T03:12:11;20.90;50.60
52799;DHT22;38667;42.872;74.622;2023-05-16T03:14:38;21.00;50.70
52799;DHT22;38667;42.872;74.622;2023-05-16T03:17:04;21.10;50.20
52799;DHT22;38667;42.872;74.622;2023-05-16T03:19:30;21.20;49.20
52799;DHT22;38667;42.872;74.622;2023-05-16T03:21:58;21.20;48.10
52799;DHT22;38667;42.872;74.622;2023-05-16T03:24:24;21.30;48.00
52799;DHT22;38667;42.872;74.622;2023-05-16T03:26:51;21.30;48.10
52799;DHT22;38667;42.872;74.622;2023-05-16T03:29:17;21.40;47.40
52799;DHT22;38667;42.872;74.622;2023-05-16T03:31:43;21.50;47.90
52799;DHT22;38667;42.872;74.622;2023-05-16T03:34:10;21.50;47.30
52799;DHT22;38667;42.872;74.622;2023-05-16T03:36:37;21.50;47.00
52799;DHT22;38667;42.872;74.622;2023-05-16T03:39:05;21.40;47.20
52799;DHT22;38667;42.872;74.622;2023-05-16T03:41:31;21.50;48.00
52799;DHT22;38667;42.872;74.622;2023-05-16T03:43:58;21.50;48.60
52799;DHT22;38667;42.872;74.622;2023-05-16T03:46:24;21.60;48.30
52799;DHT22;38667;42.872;74.622;2023-05-16T03:48:50;21.60;47.80
52799;DHT22;38667;42.872;74.622;2023-05-16T03:51:17;21.80;47.90
52799;DHT22;38667;42.872;74.622;2023-05-16T03:53:43;21.90;47.00
52799;DHT22;38667;42.872;74.622;2023-05-16T03:56:11;22.00;47.00
52799;DHT22;38667;42.872;74.622;2023-05-16T03:58:37;22.10;47.40
52799;DHT22;38667;42.872;74.622;2023-05-16T04:01:03;22.20;47.10
52799;DHT22;38667;42.872;74.622;2023-05-16T04:03:30;22.20;47.00
52799;DHT22;38667;42.872;74.622;2023-05-16T04:05:56;22.30;46.00
52799;DHT22;38667;42.872;74.622;2023-05-16T04:08:23;22.40;46.10
52799;DHT22;38667;42.872;74.622;2023-05-16T04:10:49;22.70;45.80
52799;DHT22;38667;42.872;74.622;2023-05-16T04:13:17;22.80;46.10
52799;DHT22;38667;42.872;74.622;2023-05-16T04:15:43;22.90;46.90
52799;DHT22;38667;42.872;74.622;2023-05-16T04:18:09;23.00;47.10
52799;DHT22;38667;42.872;74.622;2023-05-16T04:20:36;23.00;46.60
52799;DHT22;38667;42.872;74.622;2023-05-16T04:23:02;23.10;47.10
52799;DHT22;38667;42.872;74.622;2023-05-16T04:25:28;23.10;46.10
52799;DHT22;38667;42.872;74.622;2023-05-16T04:27:55;23.20;45.20
52799;DHT22;38667;42.872;74.622;2023-05-16T04:30:22;23.40;45.10
52799;DHT22;38667;42.872;74.622;2023-05-16T04:32:49;23.40;45.30
52799;DHT22;38667;42.872;74.622;2023-05-16T04:35:15;23.50;43.70
52799;DHT22;38667;42.872;74.622;2023-05-16T04:37:42;23.50;43.90
52799;DHT22;38667;42.872;74.622;2023-05-16T04:40:09;23.60;43.60
52799;DHT22;38667;42.872;74.622;2023-05-16T04:42:35;23.60;42.90
52799;DHT22;38667;42.872;74.622;2023-05-16T04:45:01;23.60;43.40
52799;DHT22;38667;42.872;74.622;2023-05-16T04:47:29;23.70;43.00
52799;DHT22;38667;42.872;74.622;2023-05-16T04:49:55;23.80;42.50
52799;DHT22;38667;42.872;74.622;2023-05-16T04:52:22;23.80;42.60
52799;DHT22;38667;42.872;74.622;2023-05-16T04:54:50;23.90;41.20
52799;DHT22;38667;42.872;74.622;2023-05-16T04:57:16;23.90;42.10
52799;DHT22;38667;42.872;74.622;2023-05-16T04:59:42;23.80;42.00
52799;DHT22;38667;42.872;74.622;2023-05-16T05:02:09;23.70;42.20
52799;DHT22;38667;42.872;74.622;2023-05-16T05:04:37;23.60;43.60
52799;DHT22;38667;42.872;74.622;2023-05-16T05:07:03;23.60;43.00
52799;DHT22;38667;42.872;74.622;2023-05-16T05:09:29;23.60;43.20
52799;DHT22;38667;42.872;74.622;2023-05-16T05:11:56;23.70;43.00
52799;DHT22;38667;42.872;74.622;2023-05-16T05:14:22;23.70;44.10
52799;DHT22;38667;42.872;74.622;2023-05-16T05:16:48;23.70;44.40
52799;DHT22;38667;42.872;74.622;2023-05-16T05:19:14;23.80;45.00
52799;DHT22;38667;42.872;74.622;2023-05-16T05:21:43;23.80;45.50
52799;DHT22;38667;42.872;74.622;2023-05-16T05:24:09;23.80;45.00
52799;DHT22;38667;42.872;74.622;2023-05-16T05:26:36;23.80;45.20
52799;DHT22;38667;42.872;74.622;2023-05-16T05:29:02;23.80;44.10
52799;DHT22;38667;42.872;74.622;2023-05-16T05:31:28;23.70;44.30
52799;DHT22;38667;42.872;74.622;2023-05-16T05:33:55;23.80;44.60
52799;DHT22;38667;42.872;74.622;2023-05-16T05:36:21;23.90;44.60
52799;DHT22;38667;42.872;74.622;2023-05-16T05:38:49;24.00;42.70
52799;DHT22;38667;42.872;74.622;2023-05-16T05:41:15;24.10;42.80
52799;DHT22;38667;42.872;74.622;2023-05-16T05:43:41;24.00;43.20
52799;DHT22;38667;42.872;74.622;2023-05-16T05:46:08;23.80;43.80
52799;DHT22;38667;42.872;74.622;2023-05-16T05:48:34;24.10;43.50
52799;DHT22;38667;42.872;74.622;2023-05-16T05:51:01;24.40;44.70
52799;DHT22;38667;42.872;74.622;2023-05-16T05:53:27;24.80;42.70
52799;DHT22;38667;42.872;74.622;2023-05-16T05:55:55;25.10;42.20
52799;DHT22;38667;42.872;74.622;2023-05-16T05:58:21;25.30;43.40
52799;DHT22;38667;42.872;74.622;2023-05-16T06:00:47;25.30;41.80
52799;DHT22;38667;42.872;74.622;2023-05-16T06:03:14;25.20;42.40
52799;DHT22;38667;42.872;74.622;2023-05-16T06:05:40;25.10;42.60
52799;DHT22;38667;42.872;74.622;2023-05-16T06:08:06;25.00;41.80
52799;DHT22;38667;42.872;74.622;2023-05-16T06:10:32;25.00;42.10
52799;DHT22;38667;42.872;74.622;2023-05-16T06:13:00;25.00;42.00
52799;DHT22;38667;42.872;74.622;2023-05-16T06:15:26;24.90;41.60
52799;DHT22;38667;42.872;74.622;2023-05-16T06:17:53;24.80;42.10
52799;DHT22;38667;42.872;74.622;2023-05-16T06:20:19;24.80;41.70
52799;DHT22;38667;42.872;74.622;2023-05-16T06:22:45;24.80;40.30
52799;DHT22;38667;42.872;74.622;2023-05-16T06:25:12;24.80;40.80
52799;DHT22;38667;42.872;74.622;2023-05-16T06:27:38;24.90;40.30
52799;DHT22;38667;42.872;74.622;2023-05-16T06:30:07;24.90;40.50
52799;DHT22;38667;42.872;74.622;2023-05-16T06:32:33;25.00;40.50
52799;DHT22;38667;42.872;74.622;2023-05-16T06:35:00;25.10;40.70
52799;DHT22;38667;42.872;74.622;2023-05-16T06:37:26;25.00;40.60
52799;DHT22;38667;42.872;74.622;2023-05-16T06:39:52;24.90;40.60
52799;DHT22;38667;42.872;74.622;2023-05-16T06:42:19;24.80;40.70
52799;DHT22;38667;42.872;74.622;2023-05-16T06:44:45;24.80;39.90
52799;DHT22;38667;42.872;74.622;2023-05-16T06:47:13;24.80;40.20
52799;DHT22;38667;42.872;74.622;2023-05-16T06:49:39;24.70;39.90
52799;DHT22;38667;42.872;74.622;2023-05-16T06:52:06;25.00;39.80
52799;DHT22;38667;42.872;74.622;2023-05-16T06:54:32;25.10;40.00
52799;DHT22;38667;42.872;74.622;2023-05-16T06:56:58;25.20;39.70
52799;DHT22;38667;42.872;74.622;2023-05-16T06:59:24;25.40;39.00
52799;DHT22;38667;42.872;74.622;2023-05-16T07:01:51;25.30;39.50
52799;DHT22;38667;42.872;74.622;2023-05-16T07:04:19;25.10;39.30
52799;DHT22;38667;42.872;74.622;2023-05-16T07:06:45;25.00;41.20
52799;DHT22;38667;42.872;74.622;2023-05-16T07:09:11;24.80;41.40
52799;DHT22;38667;42.872;74.622;2023-05-16T07:11:37;24.90;41.40
52799;DHT22;38667;42.872;74.622;2023-05-16T07:14:04;25.20;41.60
52799;DHT22;38667;42.872;74.622;2023-05-16T07:16:30;25.50;40.40
52799;DHT22;38667;42.872;74.622;2023-05-16T07:18:56;25.40;40.30
52799;DHT22;38667;42.872;74.622;2023-05-16T07:21:24;25.30;41.50
52799;DHT22;38667;42.872;74.622;2023-05-16T07:23:50;25.60;41.40
52799;DHT22;38667;42.872;74.622;2023-05-16T07:26:17;25.70;40.00
52799;DHT22;38667;42.872;74.622;2023-05-16T07:28:43;25.70;41.00
52799;DHT22;38667;42.872;74.622;2023-05-16T07:31:09;25.70;41.10
52799;DHT22;38667;42.872;74.622;2023-05-16T07:33:36;25.90;40.00
52799;DHT22;38667;42.872;74.622;2023-05-16T07:36:02;25.90;38.90
52799;DHT22;38667;42.872;74.622;2023-05-16T07:38:30;26.10;39.30
52799;DHT22;38667;42.872;74.622;2023-05-16T07:40:56;26.10;39.60
52799;DHT22;38667;42.872;74.622;2023-05-16T07:43:23;26.20;39.40
52799;DHT22;38667;42.872;74.622;2023-05-16T07:45:49;26.00;39.40
52799;DHT22;38667;42.872;74.622;2023-05-16T07:48:15;26.00;39.30
52799;DHT22;38667;42.872;74.622;2023-05-16T07:50:42;25.80;40.00
52799;DHT22;38667;42.872;74.622;2023-05-16T07:53:08;25.70;40.70
52799;DHT22;38667;42.872;74.622;2023-05-16T07:55:36;25.90;39.40
52799;DHT22;38667;42.872;74.622;2023-05-16T07:58:03;26.10;39.50
52799;DHT22;38667;42.872;74.622;2023-05-16T08:00:29;26.40;36.30
52799;DHT22;38667;42.872;74.622;2023-05-16T08:02:56;26.50;37.90
52799;DHT22;38667;42.872;74.622;2023-05-16T08:05:23;26.70;37.10
52799;DHT22;38667;42.872;74.622;2023-05-16T08:07:49;26.30;38.20
52799;DHT22;38667;42.872;74.622;2023-05-16T08:10:15;26.10;38.70
52799;DHT22;38667;42.872;74.622;2023-05-16T08:12:43;26.10;38.50
52799;DHT22;38667;42.872;74.622;2023-05-16T08:15:10;26.00;39.30
52799;DHT22;38667;42.872;74.622;2023-05-16T08:17:36;26.20;38.60
52799;DHT22;38667;42.872;74.622;2023-05-16T08:20:03;26.20;38.10
52799;DHT22;38667;42.872;74.622;2023-05-16T08:22:30;26.20;37.40
52799;DHT22;38667;42.872;74.622;2023-05-16T08:24:56;26.20;38.20
52799;DHT22;38667;42.872;74.622;2023-05-16T08:27:23;26.40;36.60
52799;DHT22;38667;42.872;74.622;2023-05-16T08:29:50;26.40;36.20
52799;DHT22;38667;42.872;74.622;2023-05-16T08:32:17;26.20;37.00
52799;DHT22;38667;42.872;74.622;2023-05-16T08:34:43;26.40;36.40
52799;DHT22;38667;42.872;74.622;2023-05-16T08:37:09;26.10;37.50
52799;DHT22;38667;42.872;74.622;2023-05-16T08:39:37;26.00;38.40
52799;DHT22;38667;42.872;74.622;2023-05-16T08:42:04;25.90;37.10
52799;DHT22;38667;42.872;74.622;2023-05-16T08:44:31;25.70;37.90
52799;DHT22;38667;42.872;74.622;2023-05-16T08:47:06;25.60;37.60
52799;DHT22;38667;42.872;74.622;2023-05-16T08:49:36;25.60;37.70
52799;DHT22;38667;42.872;74.622;2023-05-16T08:52:07;25.40;38.10
52799;DHT22;38667;42.872;74.622;2023-05-16T08:54:34;25.20;38.50
52799;DHT22;38667;42.872;74.622;2023-05-16T08:57:01;25.20;38.40
52799;DHT22;38667;42.872;74.622;2023-05-16T08:59:28;25.00;38.40
52799;DHT22;38667;42.872;74.622;2023-05-16T09:01:55;25.00;38.90
52799;DHT22;38667;42.872;74.622;2023-05-16T09:04:24;24.80;39.50
52799;DHT22;38667;42.872;74.622;2023-05-16T09:06:51;24.70;40.00
52799;DHT22;38667;42.872;74.622;2023-05-16T09:09:18;24.60;40.00
52799;DHT22;38667;42.872;74.622;2023-05-16T09:11:44;24.70;39.70
52799;DHT22;38667;42.872;74.622;2023-05-16T09:14:10;24.70;39.80
52799;DHT22;38667;42.872;74.622;2023-05-16T09:16:37;24.70;40.20
52799;DHT22;38667;42.872;74.622;2023-05-16T09:19:03;24.90;41.30
52799;DHT22;38667;42.872;74.622;2023-05-16T09:21:34;25.10;40.10
52799;DHT22;38667;42.872;74.622;2023-05-16T09:24:02;25.00;40.10
52799;DHT22;38667;42.872;74.622;2023-05-16T09:26:29;25.00;41.30
52799;DHT22;38667;42.872;74.622;2023-05-16T09:28:55;24.80;40.80
52799;DHT22;38667;42.872;74.622;2023-05-16T09:31:22;24.70;41.90
52799;DHT22;38667;42.872;74.622;2023-05-16T09:33:49;24.70;42.80
52799;DHT22;38667;42.872;74.622;2023-05-16T09:36:15;24.60;42.10
52799;DHT22;38667;42.872;74.622;2023-05-16T09:38:44;24.60;41.50
52799;DHT22;38667;42.872;74.622;2023-05-16T09:41:10;24.60;41.90
52799;DHT22;38667;42.872;74.622;2023-05-16T09:43:38;24.60;40.60
52799;DHT22;38667;42.872;74.622;2023-05-16T09:46:05;24.70;40.20
52799;DHT22;38667;42.872;74.622;2023-05-16T09:48:32;24.60;40.50
52799;DHT22;38667;42.872;74.622;2023-05-16T09:50:58;24.60;40.50
52799;DHT22;38667;42.872;74.622;2023-05-16T09:53:25;24.50;40.90
52799;DHT22;38667;42.872;74.622;2023-05-16T09:56:01;24.50;41.00
52799;DHT22;38667;42.872;74.622;2023-05-16T09:58:28;24.40;40.70
52799;DHT22;38667;42.872;74.622;2023-05-16T10:00:55;24.40;41.00
52799;DHT22;38667;42.872;74.622;2023-05-16T10:03:22;24.50;40.90
52799;DHT22;38667;42.872;74.622;2023-05-16T10:05:50;24.60;40.80
52799;DHT22;38667;42.872;74.622;2023-05-16T10:08:16;24.60;41.00
52799;DHT22;38667;42.872;74.622;2023-05-16T10:10:42;24.70;40.70
52799;DHT22;38667;42.872;74.622;2023-05-16T10:13:11;24.80;40.60
52799;DHT22;38667;42.872;74.622;2023-05-16T10:15:38;25.00;40.30
52799;DHT22;38667;42.872;74.622;2023-05-16T10:18:06;25.10;40.20
52799;DHT22;38667;42.872;74.622;2023-05-16T10:20:33;25.10;40.30
52799;DHT22;38667;42.872;74.622;2023-05-16T10:22:59;25.20;39.90
52799;DHT22;38667;42.872;74.622;2023-05-16T10:25:31;25.20;40.20
52799;DHT22;38667;42.872;74.622;2023-05-16T10:27:59;25.00;40.30
52799;DHT22;38667;42.872;74.622;2023-05-16T10:30:27;24.90;40.60
52799;DHT22;38667;42.872;74.622;2023-05-16T10:32:54;24.70;41.30
52799;DHT22;38667;42.872;74.622;2023-05-16T10:35:21;24.60;41.50
52799;DHT22;38667;42.872;74.622;2023-05-16T10:37:49;24.70;42.20
52799;DHT22;38667;42.872;74.622;2023-05-16T10:40:16;24.90;41.00
52799;DHT22;38667;42.872;74.622;2023-05-16T10:42:53;24.90;41.40
52799;DHT22;38667;42.872;74.622;2023-05-16T10:45:20;24.90;39.70
52799;DHT22;38667;42.872;74.622;2023-05-16T10:47:53;25.20;37.30
52799;DHT22;38667;42.872;74.622;2023-05-16T10:50:36;25.20;37.80
52799;DHT22;38667;42.872;74.622;2023-05-16T10:53:17;25.20;38.70
52799;DHT22;38667;42.872;74.622;2023-05-16T10:56:04;25.00;39.20
52799;DHT22;38667;42.872;74.622;2023-05-16T10:58:40;25.10;38.10
52799;DHT22;38667;42.872;74.622;2023-05-16T11:01:20;25.30;37.80
52799;DHT22;38667;42.872;74.622;2023-05-16T11:04:09;25.40;38.50
52799;DHT22;38667;42.872;74.622;2023-05-16T11:06:52;25.50;39.10
52799;DHT22;38667;42.872;74.622;2023-05-16T11:09:24;25.50;38.70
52799;DHT22;38667;42.872;74.622;2023-05-16T11:11:55;25.50;39.50
52799;DHT22;38667;42.872;74.622;2023-05-16T11:14:22;25.60;38.90
52799;DHT22;38667;42.872;74.622;2023-05-16T11:16:50;25.50;39.40
52799;DHT22;38667;42.872;74.622;2023-05-16T11:19:31;25.50;40.40
52799;DHT22;38667;42.872;74.622;2023-05-16T11:22:22;25.30;40.30
52799;DHT22;38667;42.872;74.622;2023-05-16T11:24:54;25.20;40.70
52799;DHT22;38667;42.872;74.622;2023-05-16T11:27:22;25.10;41.00
52799;DHT22;38667;42.872;74.622;2023-05-16T11:29:49;25.10;40.50
52799;DHT22;38667;42.872;74.622;2023-05-16T11:32:19;25.10;39.90
52799;DHT22;38667;42.872;74.622;2023-05-16T11:34:47;25.10;40.10
52799;DHT22;38667;42.872;74.622;2023-05-16T11:37:13;25.10;40.30
52799;DHT22;38667;42.872;74.622;2023-05-16T11:39:40;25.00;40.20
52799;DHT22;38667;42.872;74.622;2023-05-16T11:42:07;25.00;40.50
52799;DHT22;38667;42.872;74.622;2023-05-16T11:44:33;25.00;40.80
52799;DHT22;38667;42.872;74.622;2023-05-16T11:46:59;24.90;40.90
52799;DHT22;38667;42.872;74.622;2023-05-16T11:49:26;24.90;40.10
52799;DHT22;38667;42.872;74.622;2023-05-16T11:51:55;24.90;40.40
52799;DHT22;38667;42.872;74.622;2023-05-16T11:54:21;24.80;40.70
52799;DHT22;38667;42.872;74.622;2023-05-16T11:56:48;24.90;40.30
52799;DHT22;38667;42.872;74.622;2023-05-16T11:59:14;24.90;40.30
52799;DHT22;38667;42.872;74.622;2023-05-16T12:01:41;24.90;40.60
52799;DHT22;38667;42.872;74.622;2023-05-16T12:04:08;24.90;40.60
52799;DHT22;38667;42.872;74.622;2023-05-16T12:06:35;25.00;40.50
52799;DHT22;38667;42.872;74.622;2023-05-16T12:09:02;25.10;40.30
52799;DHT22;38667;42.872;74.622;2023-05-16T12:11:29;25.00;38.20
52799;DHT22;38667;42.872;74.622;2023-05-16T12:13:56;24.90;38.60
52799;DHT22;38667;42.872;74.622;2023-05-16T12:16:22;24.80;37.70
52799;DHT22;38667;42.872;74.622;2023-05-16T12:18:49;24.80;36.80
52799;DHT22;38667;42.872;74.622;2023-05-16T12:21:15;24.80;37.40
52799;DHT22;38667;42.872;74.622;2023-05-16T12:23:41;24.70;38.10
52799;DHT22;38667;42.872;74.622;2023-05-16T12:26:09;24.60;38.30
52799;DHT22;38667;42.872;74.622;2023-05-16T12:28:36;24.60;38.80
52799;DHT22;38667;42.872;74.622;2023-05-16T12:31:02;24.60;39.30
52799;DHT22;38667;42.872;74.622;2023-05-16T12:33:28;24.60;40.20
52799;DHT22;38667;42.872;74.622;2023-05-16T12:35:54;24.60;40.00
52799;DHT22;38667;42.872;74.622;2023-05-16T12:38:21;24.50;40.20
52799;DHT22;38667;42.872;74.622;2023-05-16T12:40:47;24.50;40.70
52799;DHT22;38667;42.872;74.622;2023-05-16T12:43:15;24.50;41.00
52799;DHT22;38667;42.872;74.622;2023-05-16T12:45:48;24.50;40.70
52799;DHT22;38667;42.872;74.622;2023-05-16T12:48:14;24.40;40.80
52799;DHT22;38667;42.872;74.622;2023-05-16T12:50:41;24.50;40.40
52799;DHT22;38667;42.872;74.622;2023-05-16T12:53:11;24.50;40.30
52799;DHT22;38667;42.872;74.622;2023-05-16T12:55:38;24.50;40.20
52799;DHT22;38667;42.872;74.622;2023-05-16T12:58:04;24.60;39.80
52799;DHT22;38667;42.872;74.622;2023-05-16T13:00:32;24.60;39.00
52799;DHT22;38667;42.872;74.622;2023-05-16T13:02:58;24.70;38.90
52799;DHT22;38667;42.872;74.622;2023-05-16T13:05:25;24.80;38.90
52799;DHT22;38667;42.872;74.622;2023-05-16T13:07:51;24.90;39.00
52799;DHT22;38667;42.872;74.622;2023-05-16T13:10:18;24.90;38.80
52799;DHT22;38667;42.872;74.622;2023-05-16T13:12:44;24.80;39.60
52799;DHT22;38667;42.872;74.622;2023-05-16T13:15:11;24.70;40.00
52799;DHT22;38667;42.872;74.622;2023-05-16T13:17:40;24.60;40.30
52799;DHT22;38667;42.872;74.622;2023-05-16T13:20:07;24.50;41.10
52799;DHT22;38667;42.872;74.622;2023-05-16T13:22:34;24.40;39.90
52799;DHT22;38667;42.872;74.622;2023-05-16T13:25:00;24.40;40.20
52799;DHT22;38667;42.872;74.622;2023-05-16T13:27:26;24.40;40.30
52799;DHT22;38667;42.872;74.622;2023-05-16T13:29:53;24.40;39.90
52799;DHT22;38667;42.872;74.622;2023-05-16T13:32:19;24.40;40.20
52799;DHT22;38667;42.872;74.622;2023-05-16T13:34:47;24.50;39.40
52799;DHT22;38667;42.872;74.622;2023-05-16T13:37:13;24.50;39.20
52799;DHT22;38667;42.872;74.622;2023-05-16T13:39:39;24.50;39.20
52799;DHT22;38667;42.872;74.622;2023-05-16T13:42:06;24.50;39.00
52799;DHT22;38667;42.872;74.622;2023-05-16T13:44:32;24.50;40.10
52799;DHT22;38667;42.872;74.622;2023-05-16T13:46:58;24.50;39.40
52799;DHT22;38667;42.872;74.622;2023-05-16T13:49:25;24.40;39.30
52799;DHT22;38667;42.872;74.622;2023-05-16T13:51:53;24.50;39.30
52799;DHT22;38667;42.872;74.622;2023-05-16T13:54:19;24.50;39.60
52799;DHT22;38667;42.872;74.622;2023-05-16T13:56:46;24.60;38.90
52799;DHT22;38667;42.872;74.622;2023-05-16T13:59:12;24.60;39.00
52799;DHT22;38667;42.872;74.622;2023-05-16T14:01:38;24.70;38.90
52799;DHT22;38667;42.872;74.622;2023-05-16T14:04:05;24.60;38.90
52799;DHT22;38667;42.872;74.622;2023-05-16T14:06:31;24.70;38.90
52799;DHT22;38667;42.872;74.622;2023-05-16T14:08:59;24.70;39.20
52799;DHT22;38667;42.872;74.622;2023-05-16T14:11:25;24.70;39.10
52799;DHT22;38667;42.872;74.622;2023-05-16T14:13:52;24.80;38.80
52799;DHT22;38667;42.872;74.622;2023-05-16T14:16:18;24.80;39.00
52799;DHT22;38667;42.872;74.622;2023-05-16T14:18:45;24.70;39.00
52799;DHT22;38667;42.872;74.622;2023-05-16T14:21:11;24.70;38.90
52799;DHT22;38667;42.872;74.622;2023-05-16T14:23:37;24.80;38.60
52799;DHT22;38667;42.872;74.622;2023-05-16T14:26:05;24.80;38.80
52799;DHT22;38667;42.872;74.622;2023-05-16T14:28:32;24.80;38.70
52799;DHT22;38667;42.872;74.622;2023-05-16T14:30:58;24.70;38.80
52799;DHT22;38667;42.872;74.622;2023-05-16T14:33:24;24.70;38.80
52799;DHT22;38667;42.872;74.622;2023-05-16T14:35:51;24.70;39.00
52799;DHT22;38667;42.872;74.622;2023-05-16T14:38:17;24.60;39.00
52799;DHT22;38667;42.872;74.622;2023-05-16T14:40:43;24.60;39.40
52799;DHT22;38667;42.872;74.622;2023-05-16T14:43:11;24.60;39.60
52799;DHT22;38667;42.872;74.622;2023-05-16T14:45:37;24.50;39.80
52799;DHT22;38667;42.872;74.622;2023-05-16T14:48:05;24.40;40.10
52799;DHT22;38667;42.872;74.622;2023-05-16T14:50:32;24.40;40.30
52799;DHT22;38667;42.872;74.622;2023-05-16T14:52:58;24.30;40.60
52799;DHT22;38667;42.872;74.622;2023-05-16T14:55:25;24.20;40.80
52799;DHT22;38667;42.872;74.622;2023-05-16T14:57:51;24.20;40.90
52799;DHT22;38667;42.872;74.622;2023-05-16T15:00:22;24.10;41.90
52799;DHT22;38667;42.872;74.622;2023-05-16T15:02:49;24.00;42.50
52799;DHT22;38667;42.872;74.622;2023-05-16T15:05:15;24.20;39.70
52799;DHT22;38667;42.872;74.622;2023-05-16T15:07:42;24.40;40.30
52799;DHT22;38667;42.872;74.622;2023-05-16T15:10:09;24.20;41.70
52799;DHT22;38667;42.872;74.622;2023-05-16T15:12:35;23.90;43.30
52799;DHT22;38667;42.872;74.622;2023-05-16T15:15:02;23.60;44.40
52799;DHT22;38667;42.872;74.622;2023-05-16T15:17:30;23.30;45.60